Time;durP1;ratioP1;P1;durP2;ratioP2;P2;SDS_P1;SDS_P2;PMS_P1;PMS_P2;Temp;Humidity;BMP_temperature;BMP_pressure;BME280_temperature;BME280_humidity;BME280_pressure;Samples;Min_cycle;Max_cycle;Signal;HPM_P1;HPM_P2
2021/12/01 00:01:29;;;;;;;10.93;2.40;;;9.00;99.00;;;;;;5011882;28;20026;-70
2021/12/01 00:03:54;;;;;;;12.73;2.63;;;9.00;99.20;;;;;;5010724;28;20034;-70
2021/12/01 00:06:20;;;;;;;13.35;3.08;;;8.90;99.50;;;;;;5011988;28;20045;-70
2021/12/01 00:08:46;;;;;;;14.13;2.92;;;9.00;99.40;;;;;;5012130;28;20452;-70
2021/12/01 00:11:12;;;;;;;15.50;2.95;;;8.90;99.40;;;;;;5011840;28;20166;-70
2021/12/01 00:13:37;;;;;;;8.20;2.72;;;8.90;99.60;;;;;;5011798;28;20161;-70
2021/12/01 00:16:03;;;;;;;15.82;2.95;;;8.90;99.70;;;;;;5011769;28;20482;-70
2021/12/01 00:18:29;;;;;;;12.05;3.05;;;8.80;99.70;;;;;;5011584;28;20293;-70
2021/12/01 00:20:56;;;;;;;14.45;3.80;;;8.80;99.90;;;;;;5011459;28;20030;-71
2021/12/01 00:23:23;;;;;;;12.32;3.58;;;8.80;99.90;;;;;;5012098;28;20612;-71
2021/12/01 00:25:48;;;;;;;13.35;3.30;;;8.70;99.90;;;;;;5011509;28;20037;-70
2021/12/01 00:28:14;;;;;;;9.55;3.25;;;8.80;99.90;;;;;;5011460;28;20048;-70
2021/12/01 00:30:40;;;;;;;12.80;2.97;;;8.70;99.90;;;;;;5011292;28;20034;-70
2021/12/01 00:33:08;;;;;;;10.02;3.22;;;8.80;99.90;;;;;;5011405;28;20045;-71
2021/12/01 00:35:34;;;;;;;;;;;8.70;99.90;;;;;;5012207;28;20022;-71
2021/12/01 00:38:00;;;;;;;9.07;2.55;;;8.70;99.90;;;;;;5011542;28;20465;-71
2021/12/01 00:40:25;;;;;;;11.75;3.08;;;8.70;99.90;;;;;;5011385;28;20173;-71
2021/12/01 00:42:51;;;;;;;11.52;3.30;;;8.70;99.90;;;;;;5011074;28;20061;-71
2021/12/01 00:45:22;;;;;;;14.07;3.22;;;8.70;99.90;;;;;;5011213;28;20109;-71
2021/12/01 00:47:54;;;;;;;10.23;3.25;;;8.70;99.90;;;;;;5011581;28;20064;-70
2021/12/01 00:50:21;;;;;;;10.02;3.65;;;8.70;99.90;;;;;;5011326;28;20041;-70
2021/12/01 00:52:47;;;;;;;12.02;3.25;;;8.60;99.90;;;;;;5011718;28;20045;-70
2021/12/01 00:55:12;;;;;;;11.45;3.00;;;8.60;99.90;;;;;;5010940;28;20069;-70
2021/12/01 00:57:38;;;;;;;6.38;3.15;;;8.60;99.90;;;;;;5010806;28;20109;-70
2021/12/01 01:00:06;;;;;;;14.02;3.50;;;8.50;99.90;;;;;;5010722;28;20359;-70
2021/12/01 01:02:32;;;;;;;7.00;2.92;;;8.50;99.90;;;;;;5011445;28;20082;-71
2021/12/01 01:04:58;;;;;;;9.23;3.05;;;8.40;99.90;;;;;;5011021;28;20084;-70
2021/12/01 01:07:24;;;;;;;5.35;2.75;;;8.40;99.90;;;;;;5010858;28;20034;-69
2021/12/01 01:09:49;;;;;;;10.05;2.53;;;8.50;99.90;;;;;;5010884;28;20030;-70
2021/12/01 01:18:08;;;;;;;6.53;2.67;;;8.40;99.90;;;;;;5028266;28;20080;-70
2021/12/01 01:20:35;;;;;;;5.95;2.85;;;8.40;99.90;;;;;;5013933;28;20088;-70
2021/12/01 01:23:01;;;;;;;7.10;2.90;;;8.40;99.90;;;;;;5010909;28;20371;-70
2021/12/01 01:25:27;;;;;;;4.95;2.58;;;8.40;99.90;;;;;;5014202;28;20030;-70
2021/12/01 01:27:53;;;;;;;7.53;3.33;;;8.40;99.90;;;;;;5014848;28;20034;-70
2021/12/01 01:30:19;;;;;;;7.97;2.40;;;8.40;99.90;;;;;;5014792;28;20747;-70
2021/12/01 01:32:45;;;;;;;8.68;2.60;;;8.40;99.90;;;;;;5014969;28;20033;-71
2021/12/01 01:35:12;;;;;;;5.65;2.70;;;8.40;99.90;;;;;;5014596;28;20428;-70
2021/12/01 01:37:39;;;;;;;6.65;2.72;;;8.40;99.90;;;;;;5014623;28;20247;-70
2021/12/01 01:40:05;;;;;;;5.88;3.10;;;8.40;99.90;;;;;;5014551;28;20466;-70
2021/12/01 01:42:31;;;;;;;6.35;2.45;;;8.40;99.90;;;;;;5014587;28;20037;-70
2021/12/01 01:44:57;;;;;;;5.28;2.83;;;8.40;99.90;;;;;;5014359;28;20014;-70
2021/12/01 01:47:22;;;;;;;5.30;2.72;;;8.40;99.90;;;;;;5013827;28;20326;-71
2021/12/01 01:50:02;;;;;;;6.65;2.78;;;8.40;99.90;;;;;;5014397;28;20056;-70
2021/12/01 01:52:29;;;;;;;5.20;2.75;;;8.40;99.90;;;;;;5014976;28;20030;-70
2021/12/01 01:54:55;;;;;;;8.75;2.80;;;8.30;99.90;;;;;;5013134;28;20089;-70
2021/12/01 01:57:21;;;;;;;5.25;2.53;;;8.40;99.90;;;;;;5014368;28;20046;-70
2021/12/01 01:59:47;;;;;;;3.75;2.70;;;8.30;99.90;;;;;;5014273;28;20049;-70
2021/12/01 02:02:14;;;;;;;6.47;3.22;;;8.30;99.90;;;;;;5014093;28;20036;-70
2021/12/01 02:04:39;;;;;;;4.88;2.33;;;8.30;99.90;;;;;;5014070;28;20034;-71
2021/12/01 02:07:05;;;;;;;4.78;2.10;;;8.40;99.90;;;;;;5014185;28;20041;-70
2021/12/01 02:09:32;;;;;;;4.38;2.15;;;8.40;99.90;;;;;;5014456;28;20037;-70
2021/12/01 02:12:00;;;;;;;9.15;2.10;;;8.50;99.90;;;;;;5013963;28;20444;-70
2021/12/01 02:14:27;;;;;;;5.22;2.20;;;8.50;99.90;;;;;;5014614;28;20022;-70
2021/12/01 02:16:55;;;;;;;2.97;1.80;;;8.40;99.90;;;;;;5013868;28;20056;-70
2021/12/01 02:19:22;;;;;;;3.47;1.67;;;8.50;99.90;;;;;;5013772;28;20122;-70
2021/12/01 02:21:47;;;;;;;4.47;1.95;;;8.50;99.90;;;;;;5013784;28;20042;-70
2021/12/01 02:24:14;;;;;;;2.22;1.48;;;8.50;99.90;;;;;;5013840;28;20087;-70
2021/12/01 02:26:44;;;;;;;2.25;1.77;;;8.50;99.90;;;;;;5014444;28;20419;-69
2021/12/01 02:29:12;;;;;;;3.03;1.60;;;8.50;99.90;;;;;;5013923;28;20440;-70
2021/12/01 02:31:39;;;;;;;3.45;1.83;;;8.50;99.90;;;;;;5013667;28;20628;-70
2021/12/01 02:34:09;;;;;;;3.22;1.60;;;8.60;99.90;;;;;;5013931;28;20034;-70
2021/12/01 02:36:37;;;;;;;3.20;1.55;;;8.50;99.90;;;;;;5013786;28;20026;-70
2021/12/01 02:39:09;;;;;;;4.70;1.90;;;8.60;99.90;;;;;;5013422;28;20081;-70
2021/12/01 02:41:36;;;;;;;2.80;1.48;;;8.70;99.90;;;;;;5013950;28;20037;-70
2021/12/01 02:44:04;;;;;;;7.40;2.10;;;8.60;99.90;;;;;;5013481;28;20026;-70
2021/12/01 02:46:31;;;;;;;2.88;1.65;;;8.70;99.90;;;;;;5013476;28;20034;-71
2021/12/01 02:48:57;;;;;;;3.08;1.50;;;8.70;99.90;;;;;;5013318;28;20249;-71
2021/12/01 02:51:27;;;;;;;2.63;1.40;;;8.70;99.90;;;;;;5013324;28;20030;-71
2021/12/01 02:53:53;;;;;;;2.97;1.73;;;8.80;99.90;;;;;;5013437;28;20097;-71
2021/12/01 02:56:22;;;;;;;1.63;1.33;;;8.70;99.90;;;;;;5013436;28;20038;-71
2021/12/01 02:58:48;;;;;;;1.40;1.20;;;8.80;99.90;;;;;;5013150;28;20072;-70
2021/12/01 03:01:21;;;;;;;1.60;1.40;;;8.80;99.90;;;;;;5013401;28;20031;-71
2021/12/01 03:03:48;;;;;;;2.70;1.60;;;8.80;99.90;;;;;;5013185;28;20124;-71
2021/12/01 03:06:14;;;;;;;2.28;1.13;;;8.80;99.90;;;;;;5012807;28;20030;-71
2021/12/01 03:08:41;;;;;;;2.15;1.25;;;8.80;99.90;;;;;;5013352;28;20121;-71
2021/12/01 03:11:07;;;;;;;2.58;1.15;;;8.90;99.90;;;;;;5012880;28;20035;-71
2021/12/01 03:13:33;;;;;;;1.48;1.13;;;8.90;99.90;;;;;;5012841;28;20038;-71
2021/12/01 03:16:00;;;;;;;2.95;1.50;;;9.00;99.90;;;;;;5012984;28;20034;-71
2021/12/01 03:18:26;;;;;;;1.33;0.90;;;9.00;99.90;;;;;;5012834;28;20155;-70
2021/12/01 03:20:52;;;;;;;1.17;1.00;;;9.00;99.90;;;;;;5012963;28;20498;-69
2021/12/01 03:23:19;;;;;;;2.20;1.30;;;9.00;99.90;;;;;;5012515;28;20112;-70
2021/12/01 03:25:45;;;;;;;2.88;1.00;;;9.10;99.90;;;;;;5012518;28;20345;-70
2021/12/01 03:28:11;;;;;;;1.02;0.88;;;9.00;99.90;;;;;;5012437;28;20046;-70
2021/12/01 03:30:38;;;;;;;1.30;0.85;;;9.10;99.90;;;;;;5012701;28;20025;-70
2021/12/01 03:33:10;;;;;;;7.18;0.95;;;9.10;99.90;;;;;;5012717;28;20022;-70
2021/12/01 03:35:42;;;;;;;2.08;1.15;;;9.20;99.90;;;;;;5012935;28;20684;-70
2021/12/01 03:38:09;;;;;;;0.75;0.75;;;9.20;99.90;;;;;;5012385;28;20041;-70
2021/12/01 03:40:35;;;;;;;1.58;1.00;;;9.20;99.90;;;;;;5012545;28;20491;-70
2021/12/01 03:43:01;;;;;;;0.70;0.70;;;9.20;99.90;;;;;;5012521;28;20108;-69
2021/12/01 03:45:27;;;;;;;2.33;0.73;;;9.30;99.90;;;;;;5012349;28;20360;-70
2021/12/01 03:47:52;;;;;;;2.67;0.73;;;9.40;99.90;;;;;;5012102;28;20030;-70
2021/12/01 03:50:18;;;;;;;1.48;0.73;;;9.50;99.90;;;;;;5011265;28;20030;-70
2021/12/01 03:52:44;;;;;;;0.88;0.70;;;9.50;99.90;;;;;;5012064;28;20512;-70
2021/12/01 03:55:10;;;;;;;0.95;0.90;;;9.60;99.90;;;;;;5012235;28;20060;-69
2021/12/01 03:57:36;;;;;;;2.25;1.30;;;9.60;99.90;;;;;;5011853;28;20122;-70
2021/12/01 04:00:05;;;;;;;2.58;0.98;;;9.70;99.90;;;;;;5011507;28;20439;-70
2021/12/01 04:02:32;;;;;;;3.22;1.10;;;9.70;99.90;;;;;;5011354;28;20018;-70
2021/12/01 04:04:58;;;;;;;1.27;1.17;;;9.80;99.90;;;;;;5012088;28;20110;-70
2021/12/01 04:07:23;;;;;;;1.85;1.63;;;9.90;99.90;;;;;;5011123;28;20643;-71
2021/12/01 04:09:50;;;;;;;2.65;1.67;;;10.00;99.90;;;;;;5012302;28;20341;-71
2021/12/01 04:12:17;;;;;;;2.03;1.83;;;10.10;99.90;;;;;;5012015;28;20046;-71
2021/12/01 04:14:43;;;;;;;1.80;1.65;;;10.10;99.90;;;;;;5012199;28;20057;-71
2021/12/01 04:17:09;;;;;;;2.13;1.58;;;10.20;99.90;;;;;;5011704;28;20041;-69
2021/12/01 04:19:34;;;;;;;3.28;1.65;;;10.20;99.90;;;;;;5011840;28;20046;-71
2021/12/01 04:22:00;;;;;;;1.85;1.75;;;10.30;99.90;;;;;;5011760;28;20578;-71
2021/12/01 04:24:26;;;;;;;2.47;2.08;;;10.30;99.90;;;;;;5011533;28;20073;-70
2021/12/01 04:26:52;;;;;;;4.60;1.52;;;10.40;99.90;;;;;;5011981;28;20112;-70
2021/12/01 04:29:18;;;;;;;1.45;1.35;;;10.40;99.90;;;;;;5011370;28;20030;-71
2021/12/01 04:31:44;;;;;;;3.42;1.60;;;10.40;99.90;;;;;;5011339;28;20030;-70
2021/12/01 04:34:10;;;;;;;1.40;1.30;;;10.50;99.90;;;;;;5011297;28;20034;-71
2021/12/01 04:36:39;;;;;;;1.83;1.55;;;10.50;99.90;;;;;;5011477;28;20072;-70
2021/12/01 04:39:09;;;;;;;1.27;1.17;;;10.40;99.90;;;;;;5011140;28;20030;-70
2021/12/01 04:41:49;;;;;;;2.45;1.40;;;10.50;99.90;;;;;;5011861;28;20029;-70
2021/12/01 04:44:15;;;;;;;1.10;1.00;;;10.50;99.90;;;;;;5011400;28;20026;-70
2021/12/01 04:46:44;;;;;;;3.80;0.90;;;10.50;99.90;;;;;;5011286;28;20103;-69
2021/12/01 04:49:14;;;;;;;1.00;0.90;;;10.50;99.90;;;;;;5011463;28;20038;-69
2021/12/01 04:51:41;;;;;;;2.42;1.65;;;10.50;99.90;;;;;;5011330;28;20033;-70
2021/12/01 04:54:07;;;;;;;1.15;1.00;;;10.50;99.90;;;;;;5011054;28;20014;-71
2021/12/01 04:56:33;;;;;;;0.70;0.60;;;10.50;99.90;;;;;;5011714;28;20048;-70
2021/12/01 04:58:59;;;;;;;2.58;1.75;;;10.60;99.90;;;;;;5010022;28;20052;-69
2021/12/01 05:01:25;;;;;;;1.48;0.90;;;10.60;99.90;;;;;;5010935;28;20467;-69
2021/12/01 05:03:50;;;;;;;0.50;0.50;;;10.60;99.90;;;;;;5011208;28;20037;-70
2021/12/01 05:06:17;;;;;;;2.70;0.95;;;10.60;99.90;;;;;;5011038;28;20646;-70
2021/12/01 05:08:43;;;;;;;0.70;0.70;;;10.60;99.90;;;;;;5011383;28;20121;-71
2021/12/01 05:11:09;;;;;;;3.40;0.52;;;10.60;99.90;;;;;;5010591;28;20109;-70
2021/12/01 05:13:35;;;;;;;0.60;0.60;;;10.60;99.90;;;;;;5010910;28;20125;-70
2021/12/01 05:16:00;;;;;;;0.75;0.60;;;10.60;99.90;;;;;;5010133;28;20037;-70
2021/12/01 05:18:26;;;;;;;0.75;0.60;;;10.60;99.90;;;;;;5010949;28;20117;-69
2021/12/01 05:20:52;;;;;;;0.82;0.68;;;10.70;99.90;;;;;;5011438;28;20026;-71
2021/12/01 05:23:17;;;;;;;0.50;0.50;;;10.60;99.90;;;;;;5010021;28;20034;-71
2021/12/01 05:25:43;;;;;;;2.03;0.60;;;10.60;99.90;;;;;;5010857;28;20357;-71
2021/12/01 05:28:09;;;;;;;0.70;0.60;;;10.60;99.90;;;;;;5010988;28;20049;-71
2021/12/01 05:30:35;;;;;;;0.93;0.45;;;10.60;99.90;;;;;;5010872;28;20030;-70
2021/12/01 05:33:06;;;;;;;3.00;0.65;;;10.60;99.90;;;;;;5010968;28;20101;-69
2021/12/01 05:35:33;;;;;;;2.28;0.60;;;10.70;99.90;;;;;;5011217;28;20372;-71
2021/12/01 05:37:59;;;;;;;2.03;0.40;;;10.60;99.90;;;;;;5010901;28;20253;-71
2021/12/01 05:40:24;;;;;;;0.60;0.50;;;10.60;99.90;;;;;;5010712;28;20126;-70
2021/12/01 05:42:50;;;;;;;1.25;0.50;;;10.60;99.90;;;;;;5009637;28;20488;-70
2021/12/01 05:45:17;;;;;;;0.93;0.43;;;10.50;99.90;;;;;;5010874;28;20030;-70
2021/12/01 05:47:42;;;;;;;0.40;0.40;;;10.50;99.90;;;;;;5011255;28;20022;-70
2021/12/01 05:50:08;;;;;;;0.73;0.40;;;10.50;99.90;;;;;;5010723;28;20076;-70
2021/12/01 05:52:34;;;;;;;0.68;0.30;;;10.50;99.90;;;;;;5010860;28;20034;-71
2021/12/01 05:55:00;;;;;;;0.88;0.40;;;10.50;99.90;;;;;;5010783;28;20452;-70
2021/12/01 05:57:25;;;;;;;2.15;0.38;;;10.40;99.90;;;;;;5010509;28;20054;-70
2021/12/01 05:59:51;;;;;;;0.45;0.40;;;10.40;99.90;;;;;;5010708;28;20057;-70
2021/12/01 06:02:17;;;;;;;0.85;0.50;;;10.40;99.90;;;;;;5010697;28;20026;-70
2021/12/01 06:04:43;;;;;;;0.75;0.40;;;10.40;99.90;;;;;;5009308;28;20041;-70
2021/12/01 06:07:09;;;;;;;0.57;0.38;;;10.40;99.90;;;;;;5010416;28;20030;-71
2021/12/01 06:09:34;;;;;;;3.85;0.38;;;10.50;99.90;;;;;;5010190;28;20042;-70
2021/12/01 06:12:00;;;;;;;5.47;0.38;;;10.40;99.90;;;;;;5014105;28;20033;-70
2021/12/01 06:14:27;;;;;;;0.47;0.32;;;10.40;99.90;;;;;;5013328;28;20406;-70
2021/12/01 06:16:53;;;;;;;0.50;0.28;;;10.40;99.90;;;;;;5013818;28;20049;-70
2021/12/01 06:19:19;;;;;;;0.80;0.30;;;10.30;99.90;;;;;;5013714;28;20352;-70
2021/12/01 06:21:45;;;;;;;1.38;0.30;;;10.30;99.90;;;;;;5013867;28;20188;-70
2021/12/01 06:24:11;;;;;;;0.40;0.38;;;10.30;99.90;;;;;;5013708;28;20030;-71
2021/12/01 06:26:37;;;;;;;0.30;0.30;;;10.30;99.90;;;;;;5014421;28;20635;-71
2021/12/01 06:29:04;;;;;;;0.57;0.40;;;10.20;99.90;;;;;;5013599;28;20044;-72
2021/12/01 06:31:29;;;;;;;0.25;0.20;;;10.30;99.90;;;;;;5013669;28;20080;-70
2021/12/01 06:33:58;;;;;;;1.52;0.40;;;10.20;99.90;;;;;;5013228;28;20030;-70
2021/12/01 06:36:24;;;;;;;0.65;0.15;;;10.20;99.90;;;;;;5013716;28;20057;-69
2021/12/01 06:38:50;;;;;;;0.70;0.35;;;10.20;99.90;;;;;;5013901;28;20072;-71
2021/12/01 06:41:15;;;;;;;2.75;0.40;;;10.10;99.90;;;;;;5013897;28;20030;-71
2021/12/01 06:43:41;;;;;;;1.02;0.50;;;10.10;99.90;;;;;;5013502;28;20037;-71
2021/12/01 06:46:07;;;;;;;0.75;0.57;;;10.10;99.90;;;;;;5013684;28;20030;-70
2021/12/01 06:48:32;;;;;;;0.45;0.30;;;10.10;99.90;;;;;;5013265;28;20125;-70
2021/12/01 06:50:58;;;;;;;0.60;0.38;;;10.10;99.90;;;;;;5013551;28;20025;-71
2021/12/01 06:53:26;;;;;;;0.40;0.40;;;10.10;99.90;;;;;;5014087;28;20090;-71
2021/12/01 06:55:55;;;;;;;0.47;0.43;;;10.10;99.90;;;;;;5013319;28;20034;-71
2021/12/01 06:58:21;;;;;;;1.40;1.00;;;10.10;99.90;;;;;;5012980;28;20036;-71
2021/12/01 07:00:46;;;;;;;0.70;0.70;;;10.10;99.90;;;;;;5013415;28;20034;-70
2021/12/01 07:03:12;;;;;;;2.47;0.68;;;10.10;99.80;;;;;;5028524;28;20183;-72
2021/12/01 07:05:38;;;;;;;0.95;0.50;;;10.20;99.90;;;;;;5013768;28;20033;-69
2021/12/01 07:08:05;;;;;;;1.20;0.60;;;10.20;99.60;;;;;;5012973;28;20034;-68
2021/12/01 07:10:31;;;;;;;0.52;0.45;;;10.10;99.60;;;;;;5010694;28;20045;-70
2021/12/01 07:12:56;;;;;;;1.00;0.50;;;10.10;99.50;;;;;;5028477;28;20041;-70
2021/12/01 07:15:22;;;;;;;0.52;0.50;;;10.10;99.50;;;;;;5012836;28;20040;-74
2021/12/01 07:17:48;;;;;;;0.55;0.38;;;10.20;99.40;;;;;;5013246;28;20022;-73
2021/12/01 07:20:15;;;;;;;1.30;0.80;;;10.20;99.30;;;;;;5012746;28;20053;-73
2021/12/01 07:22:42;;;;;;;1.30;0.60;;;10.20;99.20;;;;;;5010761;28;20048;-72
2021/12/01 07:25:08;;;;;;;1.60;0.70;;;10.10;99.30;;;;;;5012992;28;20401;-72
2021/12/01 07:27:33;;;;;;;2.13;0.93;;;10.10;99.30;;;;;;5012901;28;20121;-74
2021/12/01 07:29:59;;;;;;;0.88;0.68;;;10.10;99.30;;;;;;5012842;28;20109;-72
2021/12/01 07:32:25;;;;;;;0.80;0.70;;;10.10;99.10;;;;;;5013024;28;20034;-69
2021/12/01 07:34:50;;;;;;;2.72;0.50;;;10.10;98.90;;;;;;5012728;28;20042;-74
2021/12/01 07:37:19;;;;;;;0.95;0.68;;;10.10;98.90;;;;;;5012746;28;20034;-74
2021/12/01 07:39:45;;;;;;;2.55;0.65;;;10.10;98.80;;;;;;4992908;28;20578;-78
2021/12/01 07:42:12;;;;;;;1.00;0.80;;;10.10;98.70;;;;;;4992606;28;20042;-76
2021/12/01 07:44:38;;;;;;;2.22;1.10;;;10.20;98.70;;;;;;4993083;28;20030;-75
2021/12/01 07:47:05;;;;;;;0.68;0.57;;;10.10;98.40;;;;;;4992478;28;20174;-75
2021/12/01 07:49:31;;;;;;;2.42;1.60;;;10.10;98.30;;;;;;5007647;28;20105;-77
2021/12/01 07:51:57;;;;;;;0.60;0.50;;;10.10;98.30;;;;;;4992103;28;20481;-76
2021/12/01 07:54:22;;;;;;;2.25;0.70;;;10.10;98.40;;;;;;4992270;28;20035;-76
2021/12/01 07:56:48;;;;;;;2.00;0.98;;;10.20;98.10;;;;;;4992846;28;20026;-77
2021/12/01 07:59:17;;;;;;;2.08;0.98;;;10.20;98.20;;;;;;4991884;28;20057;-77
2021/12/01 08:01:44;;;;;;;0.77;0.47;;;10.20;98.10;;;;;;4991905;28;20041;-77
2021/12/01 08:04:11;;;;;;;3.00;0.98;;;10.20;98.00;;;;;;4992088;28;20455;-78
2021/12/01 08:06:38;;;;;;;1.13;0.85;;;10.20;98.00;;;;;;4992283;28;20030;-78
2021/12/01 08:09:04;;;;;;;1.25;0.70;;;10.20;98.00;;;;;;4991799;28;20092;-72
2021/12/01 08:11:30;;;;;;;3.78;0.55;;;10.30;98.10;;;;;;4992262;28;20057;-73
2021/12/01 08:13:56;;;;;;;1.40;0.80;;;10.30;98.00;;;;;;4991767;28;20054;-77
2021/12/01 08:16:22;;;;;;;1.30;0.80;;;10.30;97.90;;;;;;5006645;28;20037;-78
2021/12/01 08:18:51;;;;;;;1.75;1.00;;;10.30;98.00;;;;;;4991838;28;20129;-77
2021/12/01 08:21:24;;;;;;;4.45;0.77;;;10.30;97.90;;;;;;4991809;28;20583;-77
2021/12/01 08:23:51;;;;;;;1.88;0.63;;;10.30;97.90;;;;;;4992333;28;20507;-78
2021/12/01 08:26:17;;;;;;;0.60;0.40;;;10.30;97.80;;;;;;4990832;28;20121;-77
2021/12/01 08:28:45;;;;;;;0.75;0.55;;;10.30;97.90;;;;;;4991434;28;20065;-73
2021/12/01 08:31:12;;;;;;;5.38;1.23;;;10.20;97.90;;;;;;4991598;28;20031;-71
2021/12/01 08:33:38;;;;;;;2.40;0.80;;;10.20;97.90;;;;;;4991546;28;20421;-75
2021/12/01 08:36:04;;;;;;;2.15;1.20;;;10.30;98.00;;;;;;4991587;28;20052;-77
2021/12/01 08:38:29;;;;;;;2.80;1.05;;;10.20;98.00;;;;;;4992229;28;20441;-75
2021/12/01 08:40:55;;;;;;;1.67;0.60;;;10.30;98.00;;;;;;4991587;28;20030;-76
2021/12/01 08:43:21;;;;;;;1.13;0.73;;;10.30;97.90;;;;;;5006542;28;20368;-74
2021/12/01 08:45:46;;;;;;;0.50;0.40;;;10.30;97.90;;;;;;5006792;28;20042;-77
2021/12/01 08:48:19;;;;;;;0.75;0.50;;;10.30;97.70;;;;;;4991443;28;20504;-75
2021/12/01 08:50:45;;;;;;;1.70;0.77;;;10.30;97.90;;;;;;4991950;28;20158;-74
2021/12/01 08:53:11;;;;;;;2.70;0.70;;;10.30;97.80;;;;;;5006733;28;20038;-76
2021/12/01 08:55:40;;;;;;;0.65;0.57;;;10.30;97.80;;;;;;4991670;28;20045;-76
2021/12/01 08:58:08;;;;;;;1.60;0.50;;;10.30;97.80;;;;;;4991115;28;20034;-75
2021/12/01 09:00:36;;;;;;;;;;;10.30;97.90;;;;;;4991565;28;20148;-75
2021/12/01 09:03:02;;;;;;;1.10;0.77;;;10.20;97.90;;;;;;4991126;28;19916;-77
2021/12/01 09:05:28;;;;;;;0.85;0.55;;;10.30;98.00;;;;;;4991784;28;20023;-76
2021/12/01 09:07:53;;;;;;;0.75;0.52;;;10.20;97.90;;;;;;5006610;28;20030;-75
2021/12/01 09:10:19;;;;;;;0.98;0.60;;;10.20;98.10;;;;;;4990662;28;20030;-76
2021/12/01 09:12:45;;;;;;;6.45;0.77;;;10.20;98.20;;;;;;4991155;28;20065;-76
2021/12/01 09:15:13;;;;;;;0.57;0.50;;;10.20;98.30;;;;;;5006753;28;20153;-74
2021/12/01 09:17:39;;;;;;;1.08;0.73;;;10.10;98.40;;;;;;4991748;28;20088;-75
2021/12/01 09:20:05;;;;;;;0.63;0.52;;;10.20;98.40;;;;;;4990650;28;20425;-71
2021/12/01 09:22:31;;;;;;;2.85;0.57;;;10.10;98.50;;;;;;4990852;28;20049;-70
2021/12/01 09:24:57;;;;;;;2.17;1.13;;;10.10;98.60;;;;;;4990753;28;20030;-70
2021/12/01 09:27:23;;;;;;;1.67;1.10;;;10.10;98.70;;;;;;5006279;28;20038;-70
2021/12/01 09:29:49;;;;;;;3.85;1.38;;;10.10;98.80;;;;;;4991366;28;20022;-74
2021/12/01 09:32:14;;;;;;;2.60;1.45;;;10.10;98.90;;;;;;4990902;28;20122;-76
2021/12/01 09:34:41;;;;;;;2.38;1.30;;;10.00;99.00;;;;;;5006120;28;20031;-76
2021/12/01 09:37:07;;;;;;;2.78;0.88;;;10.10;99.10;;;;;;4990818;28;20096;-76
2021/12/01 09:39:34;;;;;;;1.40;0.65;;;10.10;99.10;;;;;;4989682;28;20409;-75
2021/12/01 09:42:00;;;;;;;0.90;0.60;;;10.10;99.00;;;;;;5006489;28;20077;-75
2021/12/01 09:44:26;;;;;;;0.63;0.50;;;10.10;99.00;;;;;;4991239;28;20050;-77
2021/12/01 09:46:51;;;;;;;0.60;0.60;;;10.10;99.10;;;;;;4994687;28;20477;-76
2021/12/01 09:49:18;;;;;;;1.00;0.50;;;10.10;99.00;;;;;;4994843;28;20373;-77
2021/12/01 09:51:44;;;;;;;1.10;0.65;;;10.10;99.10;;;;;;4994712;28;20062;-74
2021/12/01 09:54:10;;;;;;;1.75;0.80;;;10.10;99.10;;;;;;4994262;28;20473;-74
2021/12/01 09:56:36;;;;;;;0.40;0.40;;;10.10;99.10;;;;;;4994719;28;20068;-76
2021/12/01 09:59:02;;;;;;;0.70;0.40;;;10.10;99.10;;;;;;4994159;28;20469;-78
2021/12/01 10:01:29;;;;;;;0.85;0.60;;;10.10;99.10;;;;;;4994417;28;20031;-75
2021/12/01 10:03:55;;;;;;;0.75;0.52;;;10.10;99.20;;;;;;4994384;28;20030;-74
2021/12/01 10:06:23;;;;;;;0.57;0.40;;;10.10;99.20;;;;;;4994288;28;20045;-75
2021/12/01 10:08:50;;;;;;;;;;;10.10;99.20;;;;;;4994912;28;20033;-76
2021/12/01 10:11:19;;;;;;;4.60;0.47;;;10.10;99.20;;;;;;4994290;28;19910;-76
2021/12/01 10:13:49;;;;;;;3.08;0.65;;;10.20;99.30;;;;;;4993922;28;20911;-75
2021/12/01 10:16:17;;;;;;;0.68;0.55;;;10.20;99.30;;;;;;5009573;28;20129;-78
2021/12/01 10:18:51;;;;;;;1.73;0.60;;;10.10;99.20;;;;;;4994358;28;20049;-75
2021/12/01 10:21:21;;;;;;;2.95;1.30;;;10.20;99.30;;;;;;4993953;28;20035;-70
2021/12/01 10:23:51;;;;;;;4.07;1.10;;;10.20;99.30;;;;;;4994321;28;20104;-70
2021/12/01 10:26:22;;;;;;;0.50;0.40;;;10.20;99.30;;;;;;4994214;28;20375;-72
2021/12/01 10:28:55;;;;;;;1.27;0.50;;;10.20;99.20;;;;;;4994225;28;20036;-72
2021/12/01 10:31:36;;;;;;;4.78;0.60;;;10.20;99.20;;;;;;4994652;28;20031;-73
2021/12/01 10:34:35;;;;;;;1.67;0.47;;;10.20;99.20;;;;;;4994167;28;20124;-72
2021/12/01 10:37:28;;;;;;;1.23;0.70;;;10.20;99.20;;;;;;4994020;28;20039;-72
2021/12/01 10:40:12;;;;;;;5.68;0.75;;;10.30;99.20;;;;;;4993946;28;20066;-73
2021/12/01 10:42:59;;;;;;;1.27;0.50;;;10.30;99.10;;;;;;4994048;28;20126;-70
2021/12/01 10:45:34;;;;;;;0.98;0.35;;;10.30;99.10;;;;;;4993706;28;20452;-71
2021/12/01 10:48:02;;;;;;;0.60;0.25;;;10.30;99.00;;;;;;4993802;28;20026;-75
2021/12/01 10:50:31;;;;;;;1.10;0.50;;;10.40;98.90;;;;;;4993328;28;20022;-72
2021/12/01 10:53:19;;;;;;;4.05;0.60;;;10.40;98.90;;;;;;4993870;28;20035;-74
2021/12/01 10:55:51;;;;;;;4.13;0.50;;;10.40;98.80;;;;;;4993678;28;20435;-73
2021/12/01 10:58:18;;;;;;;1.80;0.40;;;10.40;98.70;;;;;;4992222;28;20037;-73
2021/12/01 11:00:46;;;;;;;1.33;0.52;;;10.50;98.70;;;;;;4993503;28;20671;-73
2021/12/01 11:03:15;;;;;;;5.97;0.40;;;10.50;98.50;;;;;;4993415;28;20041;-73
2021/12/01 11:05:50;;;;;;;4.85;0.30;;;10.50;98.50;;;;;;4992967;28;20027;-72
2021/12/01 11:08:18;;;;;;;0.20;0.20;;;10.50;98.40;;;;;;4993466;28;20445;-73
2021/12/01 11:10:45;;;;;;;1.38;0.50;;;10.60;98.40;;;;;;4992067;28;20039;-74
2021/12/01 11:13:12;;;;;;;0.60;0.40;;;10.60;98.40;;;;;;4993293;28;20038;-73
2021/12/01 11:15:43;;;;;;;0.40;0.30;;;10.60;98.40;;;;;;5008869;28;20372;-73
2021/12/01 11:18:15;;;;;;;1.02;0.52;;;10.60;98.40;;;;;;4993189;28;20026;-73
2021/12/01 11:20:46;;;;;;;3.35;0.60;;;10.60;98.30;;;;;;4993804;28;20452;-74
2021/12/01 11:23:17;;;;;;;2.28;0.30;;;10.70;98.20;;;;;;4993161;28;20037;-71
2021/12/01 11:25:48;;;;;;;1.65;0.40;;;10.70;98.10;;;;;;4992204;28;20110;-72
2021/12/01 11:28:16;;;;;;;0.50;0.30;;;10.70;98.10;;;;;;4992289;28;20050;-77
2021/12/01 11:30:45;;;;;;;0.57;0.47;;;10.80;98.00;;;;;;4992723;28;20050;-76
2021/12/01 11:33:14;;;;;;;2.85;0.52;;;10.80;98.00;;;;;;4992694;28;20057;-74
2021/12/01 11:35:43;;;;;;;1.65;0.28;;;10.90;98.00;;;;;;4993026;28;20298;-74
2021/12/01 11:38:10;;;;;;;5.50;1.00;;;10.90;97.90;;;;;;4992964;28;20459;-76
2021/12/01 11:40:36;;;;;;;2.75;1.00;;;11.00;97.80;;;;;;4992395;28;20035;-72
2021/12/01 11:43:03;;;;;;;2.70;1.00;;;11.00;97.80;;;;;;4992631;28;20093;-71
2021/12/01 11:45:29;;;;;;;2.60;0.65;;;11.00;97.70;;;;;;4992660;28;20026;-73
2021/12/01 11:47:55;;;;;;;1.58;0.38;;;11.00;97.80;;;;;;4992874;28;20046;-72
2021/12/01 11:50:32;;;;;;;0.75;0.45;;;10.90;97.70;;;;;;4992489;28;20034;-73
2021/12/01 11:53:21;;;;;;;0.88;0.40;;;10.90;97.60;;;;;;4992229;28;20348;-71
2021/12/01 11:55:59;;;;;;;0.47;0.40;;;10.90;97.60;;;;;;4991247;28;20090;-73
2021/12/01 11:58:54;;;;;;;2.72;0.22;;;10.90;97.50;;;;;;4991811;28;20361;-72
2021/12/01 12:01:23;;;;;;;1.20;0.47;;;10.90;97.60;;;;;;4983631;28;20034;-71
2021/12/01 12:03:54;;;;;;;0.43;0.40;;;11.00;97.60;;;;;;4992342;28;20030;-81
2021/12/01 12:06:22;;;;;;;1.27;0.25;;;11.00;97.50;;;;;;4992088;28;20126;-79
2021/12/01 12:08:54;;;;;;;1.95;0.80;;;11.00;97.40;;;;;;4992285;28;20112;-80
2021/12/01 12:11:35;;;;;;;1.48;0.60;;;11.00;97.40;;;;;;4992725;28;20050;-79
2021/12/01 12:14:14;;;;;;;3.65;0.68;;;11.00;97.20;;;;;;4991040;28;20444;-77
2021/12/01 12:16:59;;;;;;;1.70;0.63;;;11.00;97.20;;;;;;4991767;28;20050;-77
2021/12/01 12:19:45;;;;;;;2.92;0.40;;;11.00;97.20;;;;;;4991690;28;20447;-80
2021/12/01 12:22:18;;;;;;;5.80;0.70;;;11.00;97.00;;;;;;4991598;28;20045;-76
2021/12/01 12:24:50;;;;;;;4.78;0.60;;;11.00;97.00;;;;;;4991552;28;20041;-77
2021/12/01 12:27:34;;;;;;;1.08;0.70;;;11.10;97.10;;;;;;5006831;28;20031;-76
2021/12/01 12:30:14;;;;;;;1.17;0.65;;;11.00;97.10;;;;;;4991839;28;20022;-72
2021/12/01 12:32:42;;;;;;;0.60;0.40;;;11.20;97.70;;;;;;4992010;28;20026;-73
2021/12/01 12:35:16;;;;;;;2.78;0.70;;;11.10;97.10;;;;;;4991739;28;20030;-73
2021/12/01 12:37:44;;;;;;;0.85;0.50;;;11.10;97.20;;;;;;4991273;28;20030;-75
2021/12/01 12:40:21;;;;;;;1.27;0.82;;;11.00;97.20;;;;;;4991294;28;20039;-75
2021/12/01 12:43:05;;;;;;;1.98;0.80;;;11.10;97.30;;;;;;4991277;28;20031;-78
2021/12/01 12:45:32;;;;;;;2.08;0.40;;;11.10;97.30;;;;;;4990219;28;20046;-76
2021/12/01 12:47:57;;;;;;;4.15;0.60;;;11.10;97.30;;;;;;4990082;28;20604;-82
2021/12/01 12:50:24;;;;;;;1.58;0.50;;;11.10;97.30;;;;;;4991628;28;20038;-72
2021/12/01 12:53:08;;;;;;;3.70;0.65;;;11.10;97.20;;;;;;4991066;28;20092;-76
2021/12/01 12:55:42;;;;;;;0.90;0.60;;;11.10;97.30;;;;;;4990905;28;20073;-73
2021/12/01 12:58:10;;;;;;;2.13;0.65;;;11.10;97.60;;;;;;4990547;28;20510;-74
2021/12/01 13:00:49;;;;;;;1.02;0.40;;;11.20;97.70;;;;;;4991010;28;20431;-73